createdAt,value
2023-02-02T00:01:29.526Z,5.60
2023-02-02T00:03:57.190Z,5.70
2023-02-02T00:06:26.391Z,5.70
2023-02-02T00:08:53.760Z,5.70
2023-02-02T00:11:21.192Z,5.70
2023-02-02T00:13:48.616Z,5.70
2023-02-02T00:16:30.647Z,5.60
2023-02-02T00:19:02.424Z,5.60
2023-02-02T00:21:29.802Z,5.50
2023-02-02T00:23:57.110Z,5.50
2023-02-02T00:26:24.907Z,5.60
2023-02-02T00:28:52.701Z,5.60
2023-02-02T00:31:20.198Z,5.60
2023-02-02T00:33:48.788Z,5.60
2023-02-02T00:36:17.257Z,5.60
2023-02-02T00:38:44.795Z,5.60
2023-02-02T00:41:12.078Z,5.60
2023-02-02T00:43:39.339Z,5.60
2023-02-02T00:46:06.920Z,5.50
2023-02-02T00:48:34.227Z,5.50
2023-02-02T00:51:02.411Z,5.40
2023-02-02T00:53:29.757Z,5.40
2023-02-02T00:55:57.059Z,5.40
2023-02-02T00:58:24.292Z,5.40
2023-02-02T01:00:52.580Z,5.30
2023-02-02T01:03:19.809Z,5.20
2023-02-02T01:05:47.034Z,5.20
2023-02-02T01:08:14.376Z,5.20
2023-02-02T01:10:42.218Z,5.10
2023-02-02T01:13:11.458Z,5.10
2023-02-02T01:15:39.756Z,4.90
2023-02-02T01:18:08.616Z,4.50
2023-02-02T01:20:35.863Z,4.10
2023-02-02T01:23:03.116Z,3.80
2023-02-02T01:25:32.584Z,3.50
2023-02-02T01:27:59.921Z,3.30
2023-02-02T01:30:28.497Z,3.20
2023-02-02T01:32:55.897Z,3.00
2023-02-02T01:35:23.590Z,2.90
2023-02-02T01:37:51.394Z,2.90
2023-02-02T01:40:18.773Z,2.90
2023-02-02T01:42:46.032Z,2.80
2023-02-02T01:45:29.463Z,2.50
2023-02-02T01:47:59.878Z,2.50
2023-02-02T01:50:31.225Z,2.50
2023-02-02T01:53:01.356Z,2.40
2023-02-02T01:55:30.879Z,2.40
2023-02-02T01:58:00.000Z,2.20
2023-02-02T02:00:27.959Z,2.10
2023-02-02T02:03:03.469Z,1.90
2023-02-02T02:05:38.407Z,2.00
2023-02-02T02:08:21.929Z,1.90
2023-02-02T02:10:49.244Z,1.80
2023-02-02T02:13:18.047Z,1.80
2023-02-02T02:16:20.807Z,1.80
2023-02-02T02:19:08.011Z,1.80
2023-02-02T02:22:13.012Z,1.80
2023-02-02T02:25:05.007Z,1.70
2023-02-02T02:27:44.653Z,1.70
2023-02-02T02:30:30.652Z,1.60
2023-02-02T02:33:04.523Z,1.60
2023-02-02T02:36:02.823Z,1.60
2023-02-02T02:39:04.907Z,1.60
2023-02-02T02:41:36.584Z,1.60
2023-02-02T02:44:09.189Z,1.50
2023-02-02T02:46:37.987Z,1.40
2023-02-02T02:49:09.881Z,1.50
2023-02-02T02:51:52.059Z,1.50
2023-02-02T02:54:34.295Z,1.50
2023-02-02T02:57:09.007Z,1.50
2023-02-02T02:59:59.207Z,1.40
2023-02-02T03:02:44.953Z,1.40
2023-02-02T03:05:33.522Z,1.40
2023-02-02T03:08:12.262Z,1.40
2023-02-02T03:10:42.931Z,1.40
2023-02-02T03:13:12.101Z,1.40
2023-02-02T03:15:44.154Z,1.40
2023-02-02T03:18:17.106Z,1.40
2023-02-02T03:20:45.927Z,1.50
2023-02-02T03:23:13.578Z,1.40
2023-02-02T03:25:41.525Z,1.40
2023-02-02T03:28:09.618Z,1.40
2023-02-02T03:30:38.840Z,1.50
2023-02-02T03:33:06.825Z,1.50
2023-02-02T03:35:34.286Z,1.50
2023-02-02T03:38:01.867Z,1.50
2023-02-02T03:40:29.749Z,1.50
2023-02-02T03:42:57.370Z,1.50
2023-02-02T03:45:28.296Z,1.50
2023-02-02T03:47:55.569Z,1.50
2023-02-02T03:50:22.841Z,1.50
2023-02-02T03:52:50.071Z,1.60
2023-02-02T03:55:17.444Z,1.60
2023-02-02T03:57:44.600Z,1.70
2023-02-02T04:00:12.269Z,1.70
2023-02-02T04:02:39.843Z,1.70
2023-02-02T04:05:07.237Z,1.80
2023-02-02T04:07:34.561Z,1.80
2023-02-02T04:10:01.788Z,1.80
2023-02-02T04:12:28.968Z,1.80
2023-02-02T04:14:56.272Z,1.80
2023-02-02T04:17:23.603Z,1.80
2023-02-02T04:19:53.824Z,1.80
2023-02-02T04:22:21.077Z,1.80
2023-02-02T04:24:48.458Z,1.90
2023-02-02T04:27:15.606Z,1.90
2023-02-02T04:29:42.888Z,1.90
2023-02-02T04:32:10.145Z,2.00
2023-02-02T04:34:37.339Z,2.00
2023-02-02T04:37:04.586Z,2.00
2023-02-02T04:39:31.842Z,2.00
2023-02-02T04:41:59.078Z,2.00
2023-02-02T04:44:26.311Z,2.00
2023-02-02T04:46:53.584Z,2.10
2023-02-02T04:49:21.893Z,2.10
2023-02-02T04:51:50.531Z,2.10
2023-02-02T04:54:18.404Z,2.20
2023-02-02T04:56:45.676Z,2.20
2023-02-02T04:59:13.208Z,2.10
2023-02-02T05:01:40.401Z,2.00
2023-02-02T05:04:07.787Z,2.00
2023-02-02T05:06:35.080Z,2.00
2023-02-02T05:09:02.390Z,2.00
2023-02-02T05:11:30.963Z,2.00
2023-02-02T05:13:58.285Z,1.90
2023-02-02T05:16:28.681Z,1.90
2023-02-02T05:18:57.892Z,1.90
2023-02-02T05:21:25.563Z,1.90
2023-02-02T05:23:52.767Z,1.90
2023-02-02T05:26:22.859Z,1.90
2023-02-02T05:28:50.245Z,1.90
2023-02-02T05:31:17.702Z,2.00
2023-02-02T05:33:45.335Z,2.00
2023-02-02T05:36:12.818Z,2.00
2023-02-02T05:38:40.052Z,2.00
2023-02-02T05:41:07.263Z,2.00
2023-02-02T05:43:34.866Z,2.10
2023-02-02T05:46:02.845Z,2.10
2023-02-02T05:48:30.162Z,2.10
2023-02-02T05:51:12.646Z,2.10
2023-02-02T05:53:39.964Z,2.10
2023-02-02T05:56:07.275Z,2.10
2023-02-02T05:58:34.704Z,2.10
2023-02-02T06:01:02.049Z,2.10
2023-02-02T06:03:29.439Z,2.00
2023-02-02T06:05:56.828Z,2.10
2023-02-02T06:08:24.045Z,2.10
2023-02-02T06:10:51.797Z,2.10
2023-02-02T06:13:19.292Z,2.10
2023-02-02T06:15:46.615Z,2.00
2023-02-02T06:18:13.873Z,2.00
2023-02-02T06:20:41.109Z,2.00
2023-02-02T06:23:08.467Z,2.00
2023-02-02T06:25:35.796Z,2.00
2023-02-02T06:28:03.133Z,2.00
2023-02-02T06:30:30.414Z,2.00
2023-02-02T06:33:00.164Z,2.00
2023-02-02T06:35:27.711Z,1.90
2023-02-02T06:37:54.976Z,2.00
2023-02-02T06:40:22.134Z,2.00
2023-02-02T06:42:55.366Z,2.10
2023-02-02T06:45:22.810Z,2.10
2023-02-02T06:47:50.226Z,2.10
2023-02-02T06:50:17.573Z,2.10
2023-02-02T06:52:49.752Z,2.20
2023-02-02T06:55:17.352Z,2.20
2023-02-02T06:57:44.587Z,2.20
2023-02-02T07:00:13.271Z,2.20
2023-02-02T07:02:40.667Z,2.20
2023-02-02T07:05:08.194Z,2.20
2023-02-02T07:07:35.647Z,2.20
2023-02-02T07:10:02.847Z,2.20
2023-02-02T07:12:30.129Z,2.20
2023-02-02T07:14:59.472Z,2.20
2023-02-02T07:17:26.671Z,2.20
2023-02-02T07:19:53.853Z,2.20
2023-02-02T07:22:21.171Z,2.30
2023-02-02T07:24:48.390Z,2.30
2023-02-02T07:27:15.581Z,2.30
2023-02-02T07:29:42.931Z,2.40
2023-02-02T07:32:11.172Z,2.30
2023-02-02T07:34:39.882Z,2.30
2023-02-02T07:37:07.140Z,2.30
2023-02-02T07:39:34.369Z,2.30
2023-02-02T07:42:01.830Z,2.40
2023-02-02T07:44:35.737Z,2.40
2023-02-02T07:47:03.025Z,2.50
2023-02-02T07:49:30.298Z,2.50
2023-02-02T07:51:58.006Z,2.50
2023-02-02T07:54:25.347Z,2.50
2023-02-02T07:56:52.590Z,2.60
2023-02-02T07:59:19.815Z,2.70
2023-02-02T08:01:47.113Z,2.70
2023-02-02T08:04:14.437Z,2.70
2023-02-02T08:06:41.969Z,2.70
2023-02-02T08:09:10.068Z,2.80
2023-02-02T08:11:38.540Z,2.80
2023-02-02T08:14:06.442Z,2.70
2023-02-02T08:16:34.513Z,2.70
2023-02-02T08:19:01.760Z,2.70
2023-02-02T08:21:29.028Z,2.80
2023-02-02T08:23:56.558Z,2.60
2023-02-02T08:26:29.084Z,2.60
2023-02-02T08:29:02.344Z,2.60
2023-02-02T08:31:43.384Z,2.50
2023-02-02T08:34:12.356Z,2.50
2023-02-02T08:36:39.781Z,2.40
2023-02-02T08:39:10.864Z,2.40
2023-02-02T08:41:38.910Z,2.40
2023-02-02T08:44:12.026Z,2.40
2023-02-02T08:46:39.818Z,2.40
2023-02-02T08:49:07.255Z,2.40
2023-02-02T08:51:34.486Z,2.40
2023-02-02T08:54:01.871Z,2.40
2023-02-02T08:56:29.275Z,2.50
2023-02-02T08:59:04.952Z,2.40
2023-02-02T09:01:33.822Z,2.50
2023-02-02T09:04:04.659Z,2.50
2023-02-02T09:06:35.135Z,2.50
2023-02-02T09:09:03.922Z,2.60
2023-02-02T09:11:31.492Z,2.50
2023-02-02T09:14:00.592Z,2.60
2023-02-02T09:16:28.450Z,2.60
2023-02-02T09:18:56.693Z,2.60
2023-02-02T09:21:24.679Z,2.60
2023-02-02T09:23:53.866Z,2.60
2023-02-02T09:26:29.783Z,2.70
2023-02-02T09:29:00.039Z,2.70
2023-02-02T09:31:27.697Z,2.70
2023-02-02T09:33:55.524Z,2.70
2023-02-02T09:36:25.033Z,2.80
2023-02-02T09:38:52.835Z,2.80
2023-02-02T09:41:38.364Z,2.80
2023-02-02T09:44:12.139Z,2.80
2023-02-02T09:46:45.453Z,2.80
2023-02-02T09:49:21.367Z,2.80
2023-02-02T09:51:56.924Z,2.90
2023-02-02T09:54:33.465Z,2.90
2023-02-02T09:57:05.817Z,2.90
2023-02-02T09:59:40.161Z,3.00
2023-02-02T10:02:32.127Z,3.00
2023-02-02T10:05:13.975Z,3.00
2023-02-02T10:07:46.788Z,3.10
2023-02-02T10:10:36.147Z,3.00
2023-02-02T10:13:18.100Z,3.10
2023-02-02T10:16:06.392Z,3.20
2023-02-02T10:18:51.894Z,3.20
2023-02-02T10:21:40.657Z,3.30
2023-02-02T10:24:21.011Z,3.50
2023-02-02T10:27:06.276Z,3.50
2023-02-02T10:29:48.902Z,3.70
2023-02-02T10:33:01.226Z,3.80
2023-02-02T10:35:41.973Z,3.90
2023-02-02T10:38:23.281Z,3.90
2023-02-02T10:41:19.988Z,4.00
2023-02-02T10:43:57.497Z,4.10
2023-02-02T10:46:42.555Z,4.30
2023-02-02T10:49:12.921Z,4.30
2023-02-02T10:51:41.380Z,4.70
2023-02-02T10:54:29.775Z,4.90
2023-02-02T10:57:01.090Z,5.20
2023-02-02T10:59:33.094Z,5.40
2023-02-02T11:02:11.708Z,5.50
2023-02-02T11:05:04.769Z,5.70
2023-02-02T11:07:31.925Z,5.80
2023-02-02T11:09:59.206Z,5.90
2023-02-02T11:12:35.581Z,6.00
2023-02-02T11:15:09.502Z,6.00
2023-02-02T11:17:36.774Z,6.10
2023-02-02T11:20:39.816Z,6.00
2023-02-02T11:23:19.543Z,6.10
2023-02-02T11:26:01.114Z,6.10
2023-02-02T11:28:35.672Z,6.10
2023-02-02T11:31:03.656Z,6.10
2023-02-02T11:33:36.432Z,6.10
2023-02-02T11:36:06.788Z,6.10
2023-02-02T11:38:34.144Z,6.20
2023-02-02T11:41:05.474Z,6.30
2023-02-02T11:43:49.255Z,6.30
2023-02-02T11:46:24.524Z,6.30
2023-02-02T11:49:01.646Z,6.30
2023-02-02T11:51:30.690Z,6.30
2023-02-02T11:54:29.395Z,6.30
2023-02-02T11:56:59.766Z,6.30
2023-02-02T11:59:48.018Z,6.30
2023-02-02T12:02:28.972Z,6.20
2023-02-02T12:05:21.966Z,6.30
2023-02-02T12:07:49.925Z,6.30
2023-02-02T12:10:29.995Z,6.30
2023-02-02T12:13:12.155Z,6.40
2023-02-02T12:15:45.301Z,6.30
2023-02-02T12:18:21.582Z,6.30
2023-02-02T12:21:01.013Z,6.30
2023-02-02T12:23:46.528Z,6.20
2023-02-02T12:26:28.719Z,6.20
2023-02-02T12:29:14.712Z,6.30
2023-02-02T12:32:28.494Z,6.30
2023-02-02T12:35:09.340Z,6.30
2023-02-02T12:37:57.793Z,6.40
2023-02-02T12:40:49.924Z,6.40
2023-02-02T12:43:17.055Z,6.30
2023-02-02T12:46:41.179Z,6.40
2023-02-02T12:49:25.565Z,6.40
2023-02-02T12:52:19.475Z,6.40
2023-02-02T12:55:31.093Z,6.30
2023-02-02T12:58:19.410Z,6.40
2023-02-02T13:01:03.000Z,6.40
2023-02-02T13:04:00.467Z,6.40
2023-02-02T13:06:55.277Z,6.40
2023-02-02T13:09:35.074Z,6.50
2023-02-02T13:12:10.697Z,6.40
2023-02-02T13:14:49.799Z,6.40
2023-02-02T13:17:28.872Z,6.50
2023-02-02T13:20:04.602Z,6.60
2023-02-02T13:22:44.600Z,6.60
2023-02-02T13:25:49.119Z,6.60
2023-02-02T13:28:38.523Z,6.50
2023-02-02T13:31:11.743Z,6.50
2023-02-02T13:33:41.190Z,6.50
2023-02-02T13:36:26.014Z,6.60
2023-02-02T13:39:01.835Z,6.60
2023-02-02T13:41:31.537Z,6.60
2023-02-02T13:44:25.693Z,6.50
2023-02-02T13:47:00.445Z,6.50
2023-02-02T13:49:34.987Z,6.50
2023-02-02T13:52:08.121Z,6.50
2023-02-02T13:55:04.894Z,6.50
2023-02-02T13:58:07.115Z,6.50
2023-02-02T14:00:38.096Z,6.50
2023-02-02T14:03:38.604Z,6.40
2023-02-02T14:06:15.290Z,6.30
2023-02-02T14:08:56.498Z,6.30
2023-02-02T14:11:31.906Z,6.30
2023-02-02T14:14:35.365Z,6.20
2023-02-02T14:17:06.412Z,6.20
2023-02-02T14:19:33.604Z,6.10
2023-02-02T14:22:14.517Z,6.20
2023-02-02T14:24:44.308Z,6.20
2023-02-02T14:27:11.639Z,6.20
2023-02-02T14:29:46.822Z,6.10
2023-02-02T14:32:29.451Z,6.10
2023-02-02T14:35:13.852Z,6.10
2023-02-02T14:38:19.298Z,6.20
2023-02-02T14:40:59.446Z,6.20
2023-02-02T14:43:49.958Z,6.10
2023-02-02T14:46:34.040Z,6.00
2023-02-02T14:49:01.266Z,5.70
2023-02-02T14:51:32.032Z,5.70
2023-02-02T14:54:02.725Z,5.50
2023-02-02T14:56:42.665Z,5.50
2023-02-02T14:59:22.353Z,5.30
2023-02-02T15:02:09.901Z,5.10
2023-02-02T15:04:37.916Z,4.90
2023-02-02T15:07:23.233Z,4.80
2023-02-02T15:09:52.088Z,4.60
2023-02-02T15:13:00.334Z,4.60
2023-02-02T15:15:30.273Z,4.50
2023-02-02T15:18:04.737Z,4.30
2023-02-02T15:20:43.096Z,4.20
2023-02-02T15:23:19.264Z,4.10
2023-02-02T15:26:06.848Z,4.10
2023-02-02T15:28:53.040Z,4.10
2023-02-02T15:31:43.963Z,4.00
2023-02-02T15:34:29.273Z,4.00
2023-02-02T15:37:00.977Z,4.00
2023-02-02T15:39:47.467Z,4.00
2023-02-02T15:42:40.872Z,4.00
2023-02-02T15:45:28.169Z,3.90
2023-02-02T15:47:57.804Z,4.00
2023-02-02T15:50:27.074Z,4.00
2023-02-02T15:52:55.969Z,4.00
2023-02-02T15:55:33.945Z,3.90
2023-02-02T15:58:04.223Z,3.90
2023-02-02T16:00:34.645Z,3.90
2023-02-02T16:03:23.609Z,3.80
2023-02-02T16:05:54.734Z,3.80
2023-02-02T16:08:30.185Z,3.80
2023-02-02T16:11:16.425Z,3.80
2023-02-02T16:14:17.739Z,3.80
2023-02-02T16:16:47.324Z,3.80
2023-02-02T16:19:22.361Z,3.80
2023-02-02T16:22:02.273Z,3.80
2023-02-02T16:24:36.509Z,3.70
2023-02-02T16:27:07.598Z,3.80
2023-02-02T16:29:35.978Z,3.70
2023-02-02T16:32:06.444Z,3.70
2023-02-02T16:34:40.464Z,3.70
2023-02-02T16:37:14.305Z,3.70
2023-02-02T16:39:43.224Z,3.70
2023-02-02T16:42:21.843Z,3.80
2023-02-02T16:44:50.454Z,3.70
2023-02-02T16:47:27.658Z,3.70
2023-02-02T16:50:11.937Z,3.70
2023-02-02T16:52:54.541Z,3.70
2023-02-02T16:55:24.443Z,3.70
2023-02-02T16:57:53.275Z,3.70
2023-02-02T17:00:24.838Z,3.70
2023-02-02T17:02:59.451Z,3.70
2023-02-02T17:05:36.220Z,3.70
2023-02-02T17:08:07.719Z,3.80
2023-02-02T17:10:45.234Z,3.70
2023-02-02T17:13:33.267Z,3.70
2023-02-02T17:16:01.891Z,3.70
2023-02-02T17:18:30.278Z,3.70
2023-02-02T17:21:04.889Z,3.70
2023-02-02T17:23:33.203Z,3.80
2023-02-02T17:26:01.170Z,3.80
2023-02-02T17:28:30.350Z,3.80
2023-02-02T17:31:14.897Z,3.80
2023-02-02T17:33:46.097Z,3.80
2023-02-02T17:36:14.220Z,3.80
2023-02-02T17:38:41.757Z,3.80
2023-02-02T17:41:12.747Z,3.80
2023-02-02T17:43:40.064Z,3.80
2023-02-02T17:46:13.330Z,3.80
2023-02-02T17:48:40.798Z,3.80
2023-02-02T17:51:16.290Z,3.80
2023-02-02T17:53:44.692Z,3.90
2023-02-02T17:56:11.996Z,3.90
2023-02-02T17:58:39.214Z,3.90
2023-02-02T18:01:07.467Z,4.00
2023-02-02T18:03:37.621Z,4.00
2023-02-02T18:06:05.242Z,4.00
2023-02-02T18:08:33.562Z,3.90
2023-02-02T18:11:01.077Z,3.90
2023-02-02T18:13:29.195Z,3.90
2023-02-02T18:15:56.618Z,4.00
2023-02-02T18:18:24.126Z,4.00
2023-02-02T18:20:51.520Z,4.00
2023-02-02T18:23:19.860Z,3.90
2023-02-02T18:25:47.271Z,3.90
2023-02-02T18:28:17.116Z,4.00
2023-02-02T18:30:45.874Z,3.90
2023-02-02T18:33:14.326Z,3.90
2023-02-02T18:35:43.410Z,3.90
2023-02-02T18:38:11.060Z,3.90
2023-02-02T18:40:38.480Z,3.90
2023-02-02T18:43:05.752Z,4.00
2023-02-02T18:45:33.125Z,3.90
2023-02-02T18:48:00.312Z,3.90
2023-02-02T18:50:27.611Z,3.80
2023-02-02T18:52:57.130Z,3.80
2023-02-02T18:55:24.955Z,3.90
2023-02-02T18:57:52.851Z,3.90
2023-02-02T19:00:22.162Z,3.90
2023-02-02T19:02:49.554Z,3.80
2023-02-02T19:05:35.284Z,3.80
2023-02-02T19:08:04.153Z,3.80
2023-02-02T19:10:31.728Z,3.80
2023-02-02T19:13:30.435Z,3.80
2023-02-02T19:16:00.619Z,3.90
2023-02-02T19:18:31.602Z,3.80
2023-02-02T19:20:58.894Z,3.80
2023-02-02T19:23:32.247Z,3.80
2023-02-02T19:25:59.906Z,3.80
2023-02-02T19:28:31.561Z,3.80
2023-02-02T19:31:02.022Z,3.90
2023-02-02T19:33:42.854Z,3.80
2023-02-02T19:36:25.114Z,3.80
2023-02-02T19:38:58.299Z,3.80
2023-02-02T19:41:26.329Z,3.80
2023-02-02T19:43:59.781Z,3.90
2023-02-02T19:46:30.549Z,3.90
2023-02-02T19:49:20.590Z,3.90
2023-02-02T19:51:53.701Z,3.90
2023-02-02T19:54:26.141Z,4.00
2023-02-02T19:56:59.795Z,4.00
2023-02-02T19:59:33.722Z,4.00
2023-02-02T20:02:22.927Z,4.00
2023-02-02T20:05:02.014Z,4.10
2023-02-02T20:07:30.287Z,4.20
2023-02-02T20:10:11.475Z,4.20
2023-02-02T20:12:38.680Z,4.30
2023-02-02T20:15:28.715Z,4.30
2023-02-02T20:17:58.398Z,4.30
2023-02-02T20:20:34.823Z,4.40
2023-02-02T20:23:02.420Z,4.50
2023-02-02T20:25:34.307Z,4.60
2023-02-02T20:28:07.207Z,4.60
2023-02-02T20:30:35.536Z,4.60
2023-02-02T20:33:04.791Z,4.50
2023-02-02T20:35:37.341Z,4.60
2023-02-02T20:38:21.523Z,4.60
2023-02-02T20:40:51.382Z,4.60
2023-02-02T20:43:19.112Z,4.60
2023-02-02T20:45:47.802Z,4.60
2023-02-02T20:48:18.450Z,4.70
2023-02-02T20:50:49.905Z,4.70
2023-02-02T20:53:17.580Z,4.80
2023-02-02T20:55:45.247Z,4.90
2023-02-02T20:58:13.058Z,5.10
2023-02-02T21:00:40.708Z,5.20
2023-02-02T21:03:08.135Z,5.40
2023-02-02T21:05:35.481Z,5.50
2023-02-02T21:08:02.798Z,5.50
2023-02-02T21:10:30.122Z,5.50
2023-02-02T21:12:57.554Z,5.60
2023-02-02T21:15:26.444Z,5.60
2023-02-02T21:17:54.113Z,5.60
2023-02-02T21:20:21.926Z,5.60
2023-02-02T21:22:49.805Z,5.60
2023-02-02T21:25:17.233Z,5.60
2023-02-02T21:27:44.662Z,5.60
2023-02-02T21:30:14.186Z,5.70
2023-02-02T21:32:41.512Z,5.70
2023-02-02T21:35:09.628Z,5.70
2023-02-02T21:37:37.934Z,5.60
2023-02-02T21:40:28.974Z,5.60
2023-02-02T21:42:59.812Z,5.70
2023-02-02T21:45:38.707Z,5.60
2023-02-02T21:48:21.799Z,5.70
2023-02-02T21:50:49.535Z,5.60
2023-02-02T21:53:25.151Z,5.60
2023-02-02T21:55:55.954Z,5.60
2023-02-02T21:58:28.408Z,5.60
2023-02-02T22:01:00.338Z,5.70
2023-02-02T22:03:28.106Z,5.60
2023-02-02T22:06:26.231Z,5.60
2023-02-02T22:09:07.275Z,5.60
2023-02-02T22:11:59.443Z,5.60
2023-02-02T22:14:45.245Z,5.60
2023-02-02T22:17:26.358Z,5.70
2023-02-02T22:20:17.707Z,5.60
2023-02-02T22:22:47.560Z,5.70
2023-02-02T22:25:18.508Z,5.60
2023-02-02T22:27:54.314Z,5.60
2023-02-02T22:30:39.402Z,5.70
2023-02-02T22:33:08.935Z,5.60
2023-02-02T22:35:36.918Z,5.60
2023-02-02T22:38:06.244Z,5.50
2023-02-02T22:40:38.062Z,5.60
2023-02-02T22:43:08.282Z,5.60
2023-02-02T22:45:42.119Z,5.50
2023-02-02T22:48:10.068Z,5.50
2023-02-02T22:50:41.086Z,5.60
2023-02-02T22:53:09.587Z,5.60
2023-02-02T22:55:37.977Z,5.60
2023-02-02T22:58:05.789Z,5.60
2023-02-02T23:00:33.958Z,5.60
2023-02-02T23:03:01.952Z,5.60
2023-02-02T23:05:30.530Z,5.60
2023-02-02T23:07:57.896Z,5.60
2023-02-02T23:10:27.859Z,5.60
2023-02-02T23:12:58.640Z,5.60
2023-02-02T23:15:26.469Z,5.60
2023-02-02T23:17:54.429Z,5.60
2023-02-02T23:20:21.991Z,5.60
2023-02-02T23:22:50.250Z,5.60
2023-02-02T23:25:18.949Z,5.60
2023-02-02T23:27:46.459Z,5.60
2023-02-02T23:30:14.893Z,5.60
2023-02-02T23:32:42.485Z,5.60
2023-02-02T23:35:11.118Z,5.70
2023-02-02T23:37:38.949Z,5.70
2023-02-02T23:40:07.121Z,5.70
2023-02-02T23:42:37.681Z,5.70
2023-02-02T23:45:05.814Z,5.70
2023-02-02T23:47:34.624Z,5.60
2023-02-02T23:50:06.536Z,5.60
2023-02-02T23:52:34.333Z,5.60
2023-02-02T23:55:02.636Z,5.70
2023-02-02T23:57:30.300Z,5.60
2023-02-02T23:59:57.514Z,5.60
